Time;durP1;ratioP1;P1;durP2;ratioP2;P2;SDS_P1;SDS_P2;PMS_P1;PMS_P2;Temp;Humidity;BMP_temperature;BMP_pressure;BME280_temperature;BME280_humidity;BME280_pressure;Samples;Min_cycle;Max_cycle;Signal;HPM_P1;HPM_P2
2021/01/01 01:40:10;;;;;;;9.15;5.25;;;7.70;71.00;;;;;;2406960;56;21949;-81
2021/01/01 03:15:37;;;;;;;;;;;;;;;;;;;;;
2021/01/01 03:36:42;;;;;;;8.13;4.95;;;7.70;71.10;;;;;;2119813;64;21132;-82
2021/01/01 03:39:54;;;;;;;6.15;3.33;;;7.60;70.80;;;;;;2020882;67;21114;-82
2021/01/01 04:06:04;;;;;;;6.75;3.58;;;7.60;70.70;;;;;;2090958;65;21051;-83
2021/01/01 04:08:30;;;;;;;;;;;7.60;70.70;;;;;;2272759;60;20969;-81
2021/01/01 04:10:58;;;;;;;5.57;3.15;;;7.40;70.10;;;;;;2268504;59;20586;-83
2021/01/01 04:13:24;;;;;;;6.97;3.90;;;7.30;70.40;;;;;;2269559;60;20956;-83
2021/01/01 04:15:53;;;;;;;5.57;3.40;;;7.30;70.50;;;;;;2291568;57;21539;-83
2021/01/01 04:18:19;;;;;;;6.25;3.45;;;7.20;70.40;;;;;;2407804;56;21068;-82
2021/01/01 04:20:46;;;;;;;4.78;2.80;;;7.20;70.30;;;;;;2409197;57;21808;-81
2021/01/01 04:23:13;;;;;;;5.62;2.83;;;7.20;70.20;;;;;;2409804;56;21034;-83
2021/01/01 04:25:39;;;;;;;5.30;2.72;;;7.20;70.10;;;;;;2407428;56;20960;-81
2021/01/01 04:28:05;;;;;;;5.50;2.72;;;7.10;70.00;;;;;;2195755;56;21014;-82
2021/01/01 04:30:31;;;;;;;4.57;2.42;;;7.10;70.10;;;;;;2406713;56;20953;-83
2021/01/01 04:32:58;;;;;;;5.03;2.50;;;7.10;70.20;;;;;;2196266;57;21480;-83
2021/01/01 04:35:24;;;;;;;4.53;2.37;;;7.10;70.30;;;;;;2407369;56;20972;-81
2021/01/01 04:37:50;;;;;;;4.05;1.90;;;7.00;70.20;;;;;;2408135;57;20988;-81
2021/01/01 04:40:17;;;;;;;4.93;2.70;;;7.00;70.20;;;;;;2409271;56;20964;-81
2021/01/01 04:42:43;;;;;;;5.10;2.53;;;7.00;70.20;;;;;;2408660;55;20963;-83
2021/01/01 04:45:10;;;;;;;5.80;2.87;;;7.00;70.20;;;;;;2193121;56;20976;-83
2021/01/01 04:47:37;;;;;;;5.05;2.47;;;7.00;70.20;;;;;;2406194;56;22049;-84
2021/01/01 04:50:05;;;;;;;4.87;2.65;;;6.90;70.10;;;;;;2385955;56;21056;-82
2021/01/01 04:52:32;;;;;;;5.15;2.37;;;6.90;70.10;;;;;;2408354;56;20960;-83
2021/01/01 04:54:59;;;;;;;5.60;2.80;;;6.90;70.10;;;;;;2409625;56;21020;-82
2021/01/01 04:57:25;;;;;;;5.07;2.58;;;6.90;70.30;;;;;;2407424;56;20944;-82
2021/01/01 04:59:52;;;;;;;12.98;6.68;;;6.90;70.30;;;;;;2408741;56;20951;-83
2021/01/01 05:02:18;;;;;;;16.02;7.97;;;6.90;70.30;;;;;;2408245;56;20944;-82
2021/01/01 05:04:46;;;;;;;10.05;5.37;;;6.90;70.40;;;;;;2408167;56;20980;-82
2021/01/01 05:07:18;;;;;;;8.18;4.18;;;6.90;70.50;;;;;;2406784;56;21846;-83
2021/01/01 05:09:45;;;;;;;6.40;3.53;;;6.90;70.50;;;;;;2408415;56;20968;-83
2021/01/01 05:12:12;;;;;;;6.35;3.33;;;6.90;70.50;;;;;;2193499;57;21001;-84
2021/01/01 05:14:39;;;;;;;6.43;3.10;;;6.80;70.30;;;;;;2408194;56;20978;-86
2021/01/01 05:17:05;;;;;;;6.07;3.10;;;6.80;70.20;;;;;;2407333;56;20952;-81
2021/01/01 05:19:35;;;;;;;5.82;3.40;;;6.80;70.10;;;;;;2408575;57;21755;-85
2021/01/01 05:22:06;;;;;;;8.30;4.47;;;6.80;70.10;;;;;;2408546;57;21005;-83
2021/01/01 05:25:09;;;;;;;10.43;6.57;;;6.80;70.00;;;;;;2180285;56;20979;-83
2021/01/01 05:27:35;;;;;;;;;;;6.70;69.80;;;;;;2411733;57;21029;-81
2021/01/01 05:30:02;;;;;;;5.85;3.33;;;6.70;69.30;;;;;;2201419;56;20600;-81
2021/01/01 05:32:29;;;;;;;4.95;2.50;;;6.70;69.70;;;;;;2398448;56;20948;-82
2021/01/01 05:34:56;;;;;;;4.65;2.40;;;6.70;69.70;;;;;;2189112;56;21087;-84
2021/01/01 05:37:33;;;;;;;4.15;2.10;;;6.60;69.80;;;;;;2407865;56;20984;-84
2021/01/01 05:40:10;;;;;;;4.25;2.25;;;6.60;69.90;;;;;;2409202;56;20944;-85
2021/01/01 05:42:37;;;;;;;3.97;2.10;;;6.60;70.00;;;;;;2408069;57;21079;-83
2021/01/01 05:45:17;;;;;;;6.03;1.98;;;6.50;70.00;;;;;;2407662;56;20986;-81
2021/01/01 05:48:04;;;;;;;3.87;2.00;;;6.50;70.00;;;;;;2407781;57;20960;-84
2021/01/01 05:50:31;;;;;;;4.20;2.12;;;6.50;70.00;;;;;;2408466;57;20978;-85
2021/01/01 05:53:17;;;;;;;9.38;4.78;;;6.50;70.20;;;;;;2407836;56;21746;-83
2021/01/01 05:55:45;;;;;;;9.52;4.25;;;6.50;70.10;;;;;;2406411;56;20980;-82
2021/01/01 05:58:21;;;;;;;8.02;3.62;;;6.50;70.30;;;;;;2408327;56;21037;-82
2021/01/01 06:00:50;;;;;;;6.68;3.53;;;6.50;70.30;;;;;;2197021;56;20993;-82
2021/01/01 06:03:25;;;;;;;6.37;3.12;;;6.50;70.30;;;;;;2407485;56;21847;-83
2021/01/01 06:05:55;;;;;;;7.62;4.35;;;6.50;70.30;;;;;;2407110;57;21024;-82
2021/01/01 06:08:28;;;;;;;9.10;5.25;;;6.50;70.50;;;;;;2407643;57;21524;-82
2021/01/01 06:11:01;;;;;;;5.47;2.95;;;6.50;70.60;;;;;;2408647;56;20976;-85
2021/01/01 06:13:34;;;;;;;4.53;2.67;;;6.50;70.70;;;;;;2193822;56;21021;-82
2021/01/01 06:16:02;;;;;;;6.22;2.83;;;6.50;70.60;;;;;;2382451;57;20985;-83
2021/01/01 06:18:30;;;;;;;4.78;2.70;;;6.50;70.70;;;;;;2408163;56;21012;-82
2021/01/01 06:21:05;;;;;;;4.40;2.60;;;6.50;70.70;;;;;;2409196;55;21398;-81
2021/01/01 06:23:40;;;;;;;4.35;2.42;;;6.50;70.70;;;;;;2408354;56;21048;-83
2021/01/01 06:26:08;;;;;;;5.07;2.75;;;6.50;70.70;;;;;;2408481;56;21038;-82
2021/01/01 06:28:35;;;;;;;5.57;2.30;;;6.50;70.70;;;;;;2395681;56;20996;-81
2021/01/01 06:31:02;;;;;;;5.05;2.42;;;6.50;70.70;;;;;;2410502;56;21049;-82
2021/01/01 06:33:29;;;;;;;7.62;3.75;;;6.50;70.70;;;;;;2397231;56;20959;-84
2021/01/01 06:35:55;;;;;;;7.32;3.50;;;6.50;70.70;;;;;;2407104;56;21275;-84
2021/01/01 06:40:59;;;;;;;7.87;3.22;;;6.50;70.70;;;;;;2407634;57;20936;-84
2021/01/01 06:43:52;;;;;;;4.70;2.17;;;6.50;70.20;;;;;;2197189;57;21595;-82
2021/01/01 06:46:37;;;;;;;4.75;2.30;;;6.50;70.50;;;;;;2179813;57;21070;-81
2021/01/01 06:49:05;;;;;;;3.20;1.70;;;6.50;70.50;;;;;;2195639;56;20980;-83
2021/01/01 06:51:31;;;;;;;3.97;1.83;;;6.50;70.60;;;;;;2407868;57;21065;-81
2021/01/01 06:54:13;;;;;;;3.42;1.55;;;6.40;70.60;;;;;;2407528;56;20956;-83
2021/01/01 06:56:41;;;;;;;3.67;1.62;;;6.50;70.70;;;;;;2407412;56;21018;-81
2021/01/01 06:59:11;;;;;;;3.40;1.60;;;6.50;70.80;;;;;;2409426;56;20953;-80
2021/01/01 07:01:41;;;;;;;3.47;1.60;;;6.50;70.90;;;;;;2407777;56;21012;-82
2021/01/01 07:04:08;;;;;;;3.62;1.67;;;6.50;70.90;;;;;;2384385;57;21544;-82
2021/01/01 07:06:35;;;;;;;3.72;1.67;;;6.50;70.90;;;;;;2407711;56;21014;-83
2021/01/01 07:09:03;;;;;;;3.47;1.77;;;6.50;70.90;;;;;;2392535;56;20944;-82
2021/01/01 07:11:39;;;;;;;4.35;1.95;;;6.50;70.80;;;;;;2407855;56;20988;-81
2021/01/01 07:14:10;;;;;;;3.22;1.60;;;6.50;70.70;;;;;;2407732;57;21328;-81
2021/01/01 07:16:47;;;;;;;3.33;1.50;;;6.50;70.70;;;;;;2408523;56;20934;-83
2021/01/01 07:19:15;;;;;;;3.42;1.27;;;6.40;70.60;;;;;;2401871;56;21025;-81
2021/01/01 07:21:41;;;;;;;5.50;2.60;;;6.40;70.60;;;;;;2408170;56;20960;-83
2021/01/01 07:24:08;;;;;;;11.25;6.10;;;6.40;70.70;;;;;;2195714;56;20965;-81
2021/01/01 07:26:34;;;;;;;11.55;6.75;;;6.40;70.80;;;;;;2407704;56;21813;-81
2021/01/01 07:29:02;;;;;;;10.55;6.05;;;6.40;70.80;;;;;;2408056;57;21012;-81
2021/01/01 07:31:28;;;;;;;8.07;4.30;;;6.40;70.80;;;;;;2408452;57;21013;-84
2021/01/01 07:33:56;;;;;;;5.65;2.65;;;6.40;70.90;;;;;;2409770;56;21460;-80
2021/01/01 07:36:22;;;;;;;4.82;2.50;;;6.50;70.90;;;;;;2192619;57;20953;-80
2021/01/01 07:38:49;;;;;;;5.40;2.92;;;6.40;70.80;;;;;;2408168;57;20964;-82
2021/01/01 07:41:19;;;;;;;4.90;2.50;;;6.40;70.80;;;;;;2407534;57;21447;-81
2021/01/01 07:43:47;;;;;;;5.43;2.65;;;6.40;70.70;;;;;;2193230;56;20973;-83
2021/01/01 07:46:13;;;;;;;5.68;2.70;;;6.40;70.80;;;;;;2382844;57;21351;-82
2021/01/01 07:48:40;;;;;;;4.87;2.75;;;6.40;70.80;;;;;;2391468;56;20998;-83
2021/01/01 07:51:07;;;;;;;5.05;2.42;;;6.40;70.80;;;;;;2406207;56;20962;-84
2021/01/01 07:53:34;;;;;;;5.75;2.80;;;6.40;70.90;;;;;;2384394;56;21061;-81
2021/01/01 07:56:03;;;;;;;5.28;2.67;;;6.50;71.10;;;;;;2408241;56;21029;-83
2021/01/01 07:58:29;;;;;;;5.15;2.67;;;6.50;71.30;;;;;;2194620;57;21803;-81
2021/01/01 08:01:06;;;;;;;5.47;2.92;;;6.50;71.40;;;;;;2408542;56;21389;-81
2021/01/01 08:03:34;;;;;;;4.85;2.95;;;6.50;71.40;;;;;;2198040;56;20940;-81
2021/01/01 08:06:01;;;;;;;5.90;3.00;;;6.50;71.40;;;;;;2406914;57;21043;-83
2021/01/01 08:08:27;;;;;;;5.20;2.75;;;6.60;71.50;;;;;;2407970;56;21039;-82
2021/01/01 08:10:55;;;;;;;5.22;2.65;;;6.50;71.40;;;;;;2408519;56;21060;-82
2021/01/01 08:13:31;;;;;;;4.72;2.60;;;6.60;71.50;;;;;;2402417;56;21882;-84
2021/01/01 08:15:59;;;;;;;5.97;3.40;;;6.60;71.50;;;;;;2408742;57;21073;-83
2021/01/01 08:18:26;;;;;;;5.05;2.90;;;6.60;71.40;;;;;;2407630;57;20938;-83
2021/01/01 08:21:00;;;;;;;5.60;3.28;;;6.60;71.40;;;;;;2409976;56;21010;-82
2021/01/01 08:23:27;;;;;;;4.20;2.60;;;6.60;71.40;;;;;;2407217;56;21026;-83
2021/01/01 08:25:54;;;;;;;5.05;2.47;;;6.60;71.50;;;;;;2407370;56;20989;-83
2021/01/01 08:28:26;;;;;;;4.32;2.30;;;6.80;71.60;;;;;;2407289;56;21033;-81
2021/01/01 08:31:06;;;;;;;5.47;2.67;;;6.70;71.50;;;;;;2197094;56;21024;-82
2021/01/01 08:33:41;;;;;;;4.00;1.95;;;6.70;71.50;;;;;;2407170;56;21023;-81
2021/01/01 08:36:11;;;;;;;4.15;2.05;;;6.70;71.40;;;;;;2408748;57;20952;-80
2021/01/01 08:38:44;;;;;;;4.87;2.28;;;6.70;71.50;;;;;;2407618;57;20996;-81
2021/01/01 08:41:17;;;;;;;4.57;2.00;;;6.80;71.60;;;;;;2409238;56;21019;-81
2021/01/01 08:43:43;;;;;;;;;;;6.80;71.60;;;;;;2411272;56;20968;-80
2021/01/01 08:46:18;;;;;;;4.55;2.05;;;6.80;71.10;;;;;;2410670;56;20056;-83
2021/01/01 08:48:44;;;;;;;4.55;2.42;;;6.80;71.50;;;;;;2395067;56;21852;-84
2021/01/01 08:51:10;;;;;;;4.90;2.50;;;6.80;71.60;;;;;;2408410;56;21321;-84
2021/01/01 08:53:40;;;;;;;4.43;2.33;;;6.90;71.70;;;;;;2192958;56;20937;-81
2021/01/01 08:56:06;;;;;;;5.62;2.70;;;6.90;71.80;;;;;;2408106;57;20964;-82
2021/01/01 08:58:33;;;;;;;5.15;2.53;;;6.90;71.80;;;;;;2407368;57;20945;-83
2021/01/01 09:01:15;;;;;;;4.95;2.33;;;6.90;71.90;;;;;;2407878;56;21802;-83
2021/01/01 09:03:42;;;;;;;5.22;2.80;;;6.90;71.90;;;;;;2407396;57;21744;-84
2021/01/01 09:06:16;;;;;;;6.50;3.78;;;7.00;72.00;;;;;;2407507;56;21790;-83
2021/01/01 09:09:09;;;;;;;7.25;4.05;;;7.00;71.90;;;;;;2198162;56;21025;-82
2021/01/01 09:11:36;;;;;;;7.15;3.83;;;7.00;71.80;;;;;;2408932;56;21101;-81
2021/01/01 09:14:04;;;;;;;6.28;3.35;;;7.10;71.90;;;;;;2193142;56;21028;-82
2021/01/01 09:16:46;;;;;;;5.10;2.78;;;7.10;72.00;;;;;;2406711;56;21030;-82
2021/01/01 09:20:06;;;;;;;5.68;2.72;;;7.10;71.90;;;;;;2403792;57;21021;-84
2021/01/01 09:23:08;;;;;;;28.38;17.05;;;7.20;72.10;;;;;;2384898;56;20960;-81
2021/01/01 09:25:53;;;;;;;9.75;6.43;;;7.20;72.00;;;;;;2408364;56;21815;-81
2021/01/01 09:28:43;;;;;;;9.10;5.37;;;7.30;71.90;;;;;;2191868;57;21069;-81
2021/01/01 15:58:29;;;;;;;6.78;3.58;;;8.30;68.50;;;;;;2408256;56;20997;-81
2021/01/01 16:01:43;;;;;;;7.47;4.05;;;7.60;68.90;;;;;;2197438;56;21020;-83
2021/01/01 16:04:41;;;;;;;8.07;4.50;;;7.50;68.40;;;;;;2389585;56;21570;-84
2021/01/01 16:07:28;;;;;;;7.72;3.87;;;7.50;69.10;;;;;;2174155;58;20988;-83
2021/01/01 16:09:55;;;;;;;8.77;4.00;;;7.50;69.20;;;;;;2200204;56;21065;-82
2021/01/01 16:13:15;;;;;;;8.68;4.50;;;7.40;69.10;;;;;;2362323;56;20988;-81
2021/01/01 16:16:44;;;;;;;8.15;4.30;;;7.40;69.20;;;;;;2405259;56;21065;-82
2021/01/01 16:19:19;;;;;;;7.68;4.10;;;7.30;68.40;;;;;;2406854;56;20981;-82
2021/01/01 16:21:51;;;;;;;7.03;3.58;;;7.30;69.00;;;;;;2401438;56;20992;-80
2021/01/01 16:24:17;;;;;;;8.20;3.95;;;7.30;69.10;;;;;;2197338;56;20977;-82
2021/01/01 16:26:48;;;;;;;6.75;3.47;;;7.30;69.10;;;;;;2408244;56;21523;-82
2021/01/01 16:29:24;;;;;;;7.87;3.80;;;7.20;68.90;;;;;;2408440;56;21859;-81
2021/01/01 16:32:03;;;;;;;8.18;4.28;;;7.20;69.00;;;;;;2408843;56;21053;-82
2021/01/01 16:34:30;;;;;;;7.75;4.28;;;7.20;68.90;;;;;;2193285;56;20992;-82
2021/01/01 16:36:56;;;;;;;8.48;4.60;;;7.10;69.00;;;;;;2193593;57;21870;-82
2021/01/01 16:39:22;;;;;;;8.73;4.35;;;7.10;69.10;;;;;;2409166;56;20937;-83
2021/01/01 16:41:50;;;;;;;8.63;4.30;;;7.10;69.20;;;;;;2193085;56;20960;-82
2021/01/01 16:44:16;;;;;;;7.95;4.43;;;7.10;69.20;;;;;;2197574;56;20998;-81
2021/01/01 16:46:44;;;;;;;9.18;4.70;;;7.00;69.10;;;;;;2407006;57;21016;-81
2021/01/01 16:49:10;;;;;;;8.88;4.72;;;7.00;69.10;;;;;;2383135;57;21044;-82
2021/01/01 16:51:38;;;;;;;7.55;4.18;;;7.00;69.00;;;;;;2408287;57;21012;-81
2021/01/01 16:54:06;;;;;;;8.13;4.05;;;7.00;69.00;;;;;;2197212;56;21048;-82
2021/01/01 16:56:32;;;;;;;8.15;4.32;;;6.90;68.90;;;;;;2407053;56;20972;-82
2021/01/01 16:58:58;;;;;;;11.52;5.43;;;6.90;68.80;;;;;;2193227;56;20977;-80
2021/01/01 17:01:25;;;;;;;11.07;5.68;;;6.90;68.90;;;;;;2407992;56;20988;-80
2021/01/01 17:03:51;;;;;;;11.25;5.40;;;6.80;68.90;;;;;;2406967;57;20968;-82
2021/01/01 17:06:21;;;;;;;8.93;4.62;;;6.80;68.90;;;;;;2406845;56;21045;-82
2021/01/01 17:08:48;;;;;;;8.43;4.45;;;6.80;68.90;;;;;;2407756;57;21044;-80
2021/01/01 17:11:15;;;;;;;8.85;4.82;;;6.80;69.00;;;;;;2408969;56;22096;-83
2021/01/01 17:13:42;;;;;;;11.07;5.40;;;6.70;69.00;;;;;;2407795;57;20948;-83
2021/01/01 17:16:08;;;;;;;9.68;4.90;;;6.70;69.00;;;;;;2407688;56;20947;-80
2021/01/01 17:18:34;;;;;;;9.45;4.55;;;6.70;69.10;;;;;;2407309;56;21064;-82
2021/01/01 17:21:01;;;;;;;10.93;4.90;;;6.70;69.10;;;;;;2407451;56;20984;-82
2021/01/01 17:23:27;;;;;;;12.88;5.37;;;6.70;69.20;;;;;;2405684;56;21085;-81
2021/01/01 17:25:54;;;;;;;13.98;6.75;;;6.70;69.20;;;;;;2192950;56;21068;-81
2021/01/01 17:28:21;;;;;;;11.35;5.68;;;6.60;69.20;;;;;;2193410;57;20952;-82
2021/01/01 17:30:48;;;;;;;11.52;6.37;;;6.60;69.20;;;;;;2194784;57;20940;-83
2021/01/01 17:33:15;;;;;;;13.07;6.97;;;6.60;70.00;;;;;;2192773;57;21052;-82
2021/01/01 17:35:41;;;;;;;10.82;5.22;;;6.60;69.30;;;;;;2408073;56;20959;-81
2021/01/01 17:38:07;;;;;;;11.00;5.65;;;6.60;69.30;;;;;;2406866;57;21095;-83
2021/01/01 17:40:34;;;;;;;10.40;5.45;;;6.60;69.30;;;;;;2408754;56;21030;-81
2021/01/01 17:43:01;;;;;;;11.15;5.25;;;6.60;69.30;;;;;;2408002;56;21513;-81
2021/01/01 17:45:27;;;;;;;9.57;5.00;;;6.50;69.20;;;;;;2193139;56;20992;-81
2021/01/01 17:47:57;;;;;;;7.57;4.30;;;6.50;69.20;;;;;;2193656;56;21848;-82
2021/01/01 17:50:28;;;;;;;10.30;5.07;;;6.50;69.40;;;;;;2194501;57;21040;-82
2021/01/01 17:52:54;;;;;;;11.63;5.87;;;6.50;69.40;;;;;;2408291;56;20968;-82
2021/01/01 17:55:20;;;;;;;11.85;5.72;;;6.50;69.50;;;;;;2407792;56;21601;-81
2021/01/01 17:57:47;;;;;;;9.77;5.40;;;6.50;69.60;;;;;;2193071;57;20960;-83
2021/01/01 18:00:15;;;;;;;9.65;4.87;;;6.50;69.60;;;;;;2409417;56;20995;-82
2021/01/01 18:02:41;;;;;;;11.52;5.82;;;6.50;69.60;;;;;;2407653;56;21020;-82
2021/01/01 18:05:08;;;;;;;11.77;6.32;;;6.50;69.60;;;;;;2193149;57;21401;-81
2021/01/01 18:07:35;;;;;;;10.43;5.35;;;6.50;69.60;;;;;;2407328;57;21523;-83
2021/01/01 18:10:01;;;;;;;9.20;4.82;;;6.40;69.40;;;;;;2408910;57;21104;-82
2021/01/01 18:12:29;;;;;;;9.70;4.78;;;6.40;69.40;;;;;;2408168;56;21972;-81
2021/01/01 18:14:55;;;;;;;8.40;4.47;;;6.40;69.40;;;;;;2407537;57;21024;-83
2021/01/01 18:17:22;;;;;;;9.45;4.68;;;6.40;69.50;;;;;;2408001;57;21034;-83
2021/01/01 18:19:48;;;;;;;8.70;4.53;;;6.40;69.50;;;;;;2407790;57;21016;-80
2021/01/01 18:22:15;;;;;;;7.78;3.95;;;6.40;69.50;;;;;;2193786;57;20996;-81
2021/01/01 18:24:42;;;;;;;9.48;4.30;;;6.40;69.60;;;;;;2193643;56;21425;-82
2021/01/01 18:27:08;;;;;;;8.85;4.12;;;6.40;69.60;;;;;;2408861;56;21012;-82
2021/01/01 18:29:34;;;;;;;9.63;4.12;;;6.30;69.50;;;;;;2193157;56;21351;-81
2021/01/01 18:32:03;;;;;;;8.38;4.57;;;6.30;69.60;;;;;;2409201;56;20982;-82
2021/01/01 18:34:31;;;;;;;8.02;3.90;;;6.30;69.50;;;;;;2182952;57;21457;-83
2021/01/01 18:36:58;;;;;;;10.48;5.32;;;6.30;69.60;;;;;;2407593;57;20957;-80
2021/01/01 18:39:24;;;;;;;9.40;4.70;;;6.30;69.60;;;;;;2196593;56;20961;-82
2021/01/01 18:41:54;;;;;;;8.82;4.47;;;6.30;69.70;;;;;;2407862;57;21017;-81
2021/01/01 18:44:27;;;;;;;8.77;3.90;;;6.30;69.70;;;;;;2406761;55;21027;-83
2021/01/01 18:47:08;;;;;;;10.27;4.50;;;6.30;69.70;;;;;;2407215;56;20981;-80
2021/01/01 18:49:36;;;;;;;10.27;5.07;;;6.30;69.70;;;;;;2407942;57;20996;-81
2021/01/01 18:52:03;;;;;;;11.15;5.32;;;6.30;70.30;;;;;;2192443;57;20944;-82
2021/01/01 18:54:36;;;;;;;10.07;5.43;;;6.30;69.60;;;;;;2407268;56;21050;-81
2021/01/01 18:58:59;;;;;;;11.88;5.35;;;6.20;69.40;;;;;;2407912;56;21029;-82
2021/01/01 19:01:25;;;;;;;11.27;5.40;;;6.20;68.80;;;;;;2194182;57;21000;-82
2021/01/01 19:04:15;;;;;;;9.93;5.03;;;6.20;69.30;;;;;;2407743;57;20969;-83
2021/01/01 19:07:57;;;;;;;10.48;5.20;;;6.20;69.20;;;;;;2409457;56;20948;-81
2021/01/01 19:10:24;;;;;;;9.77;4.97;;;6.20;68.90;;;;;;2409655;56;21059;-83
2021/01/01 19:12:57;;;;;;;11.27;5.30;;;6.10;69.40;;;;;;2406772;56;20956;-80
2021/01/01 19:15:26;;;;;;;9.48;4.82;;;6.10;69.40;;;;;;2407621;56;21017;-80
2021/01/01 19:17:56;;;;;;;10.57;5.60;;;6.10;69.60;;;;;;2197531;56;21038;-81
2021/01/01 19:20:27;;;;;;;8.55;4.53;;;6.10;69.60;;;;;;2408066;56;21043;-82
2021/01/01 19:24:05;;;;;;;9.90;5.00;;;6.10;69.70;;;;;;2408188;57;20941;-83
2021/01/01 19:26:32;;;;;;;11.60;6.22;;;6.10;69.60;;;;;;2407483;57;21055;-82
2021/01/01 19:29:03;;;;;;;10.52;5.25;;;6.10;69.80;;;;;;2407469;56;20964;-81
2021/01/01 19:31:38;;;;;;;10.70;5.30;;;6.10;69.80;;;;;;2193313;57;20985;-81
2021/01/01 19:35:43;;;;;;;10.80;5.70;;;6.10;69.80;;;;;;2409002;56;21010;-83
2021/01/01 19:45:10;;;;;;;10.38;4.72;;;6.10;69.20;;;;;;2174954;57;21009;-80
2021/01/01 19:50:20;;;;;;;8.65;3.90;;;6.00;68.90;;;;;;2193402;56;20960;-81
2021/01/01 19:53:10;;;;;;;10.45;4.35;;;6.00;68.90;;;;;;2408497;56;21653;-81
2021/01/01 19:55:55;;;;;;;8.80;4.50;;;6.00;69.50;;;;;;2408324;56;20980;-82
2021/01/01 20:05:29;;;;;;;11.75;5.22;;;6.00;69.50;;;;;;2193488;56;21017;-82
2021/01/01 20:07:55;;;;;;;9.40;3.90;;;5.90;69.40;;;;;;2193701;57;20971;-81
2021/01/01 20:10:23;;;;;;;9.35;4.65;;;5.90;69.50;;;;;;2194404;57;21020;-81
2021/01/01 20:12:57;;;;;;;8.55;3.83;;;5.80;69.60;;;;;;2408306;57;21059;-83
2021/01/01 20:15:27;;;;;;;9.75;4.30;;;5.80;69.80;;;;;;2407927;56;20952;-80
2021/01/01 20:17:57;;;;;;;7.85;3.80;;;5.80;69.80;;;;;;2193139;56;21252;-81
2021/01/01 20:20:24;;;;;;;8.10;3.58;;;5.80;69.90;;;;;;2408963;57;20972;-84
2021/01/01 20:22:50;;;;;;;9.07;3.90;;;5.80;69.90;;;;;;2407129;56;20976;-83
2021/01/01 20:25:25;;;;;;;9.65;4.50;;;5.80;70.00;;;;;;2409420;56;21101;-80
2021/01/01 20:27:53;;;;;;;9.48;4.60;;;5.80;70.00;;;;;;2391385;56;20949;-80
2021/01/01 20:30:24;;;;;;;9.23;4.15;;;5.80;70.00;;;;;;2409794;56;20969;-82
2021/01/01 20:33:07;;;;;;;10.50;4.47;;;5.80;69.90;;;;;;2408175;56;21068;-81
2021/01/01 20:35:46;;;;;;;9.65;4.12;;;5.80;69.80;;;;;;2408456;55;20960;-83
2021/01/01 20:41:34;;;;;;;10.70;4.87;;;5.80;69.70;;;;;;2407416;56;21816;-80
2021/01/01 21:02:14;;;;;;;12.63;5.65;;;5.70;69.10;;;;;;2408628;56;20972;-83
2021/01/01 21:04:40;;;;;;;15.05;7.25;;;5.60;68.90;;;;;;2195091;56;21053;-83
2021/01/01 21:11:39;;;;;;;15.27;7.32;;;5.50;68.90;;;;;;2407647;56;21517;-81
2021/01/01 21:21:02;;;;;;;12.70;6.25;;;5.50;68.70;;;;;;2193402;56;21909;-81
2021/01/01 21:23:56;;;;;;;17.35;8.13;;;5.40;69.20;;;;;;2405670;56;21173;-81
2021/01/01 21:27:04;;;;;;;13.48;6.43;;;5.40;69.30;;;;;;2408176;56;20960;-80
2021/01/01 21:33:41;;;;;;;16.00;7.12;;;5.40;69.20;;;;;;2407725;56;21104;-81
2021/01/01 21:36:31;;;;;;;18.67;9.00;;;5.30;69.00;;;;;;2408128;57;21395;-81
2021/01/01 21:40:23;;;;;;;19.73;9.43;;;5.30;69.40;;;;;;2383744;57;20964;-83
2021/01/01 21:43:24;;;;;;;19.92;8.13;;;5.30;69.30;;;;;;2408018;56;21752;-83
2021/01/01 21:49:06;;;;;;;14.90;6.40;;;5.30;69.60;;;;;;2197273;55;20997;-81
2021/01/01 21:51:33;;;;;;;15.32;6.78;;;5.30;69.70;;;;;;2411049;56;21019;-82
2021/01/01 21:54:00;;;;;;;14.00;6.30;;;5.30;69.80;;;;;;2401052;56;20957;-82
2021/01/01 21:56:26;;;;;;;15.43;7.62;;;5.20;69.80;;;;;;2193665;57;21048;-81
2021/01/01 21:58:58;;;;;;;12.70;6.25;;;5.20;70.10;;;;;;2407793;56;20992;-83
2021/01/01 22:01:25;;;;;;;13.38;6.47;;;5.20;70.00;;;;;;2408919;57;20952;-82
2021/01/01 22:03:52;;;;;;;12.95;6.40;;;5.20;70.00;;;;;;2407959;56;20966;-81
2021/01/01 22:06:21;;;;;;;12.98;6.15;;;5.20;70.70;;;;;;2407918;56;21811;-81
2021/01/01 22:08:49;;;;;;;12.13;6.20;;;5.20;69.90;;;;;;2407761;57;21048;-84
2021/01/01 22:11:23;;;;;;;14.27;6.40;;;5.20;69.90;;;;;;2196824;56;21794;-82
2021/01/01 22:13:49;;;;;;;12.73;6.18;;;5.40;69.90;;;;;;2390758;56;21543;-82
2021/01/01 22:16:15;;;;;;;17.30;7.80;;;5.20;69.50;;;;;;2407972;57;20985;-81
2021/01/01 22:18:42;;;;;;;15.13;6.60;;;5.20;69.30;;;;;;2184529;57;21015;-85
2021/01/01 22:21:09;;;;;;;17.62;8.40;;;5.20;69.20;;;;;;2398548;56;21089;-83
2021/01/01 22:23:35;;;;;;;15.10;7.62;;;5.10;68.90;;;;;;2408086;56;20993;-84
2021/01/01 22:26:01;;;;;;;14.98;7.43;;;5.10;68.90;;;;;;2407701;57;21508;-81
2021/01/01 22:28:28;;;;;;;15.88;7.30;;;5.10;68.90;;;;;;2407986;56;21014;-82
2021/01/01 22:30:55;;;;;;;15.98;7.00;;;5.00;68.90;;;;;;2408954;56;21080;-82
2021/01/01 22:33:21;;;;;;;17.98;8.40;;;5.00;69.00;;;;;;2193998;57;20968;-80
2021/01/01 22:35:48;;;;;;;19.95;9.02;;;5.00;68.90;;;;;;2408012;56;20969;-80
2021/01/01 22:38:14;;;;;;;13.07;6.20;;;5.00;68.90;;;;;;2193262;57;20964;-81
2021/01/01 22:40:40;;;;;;;13.40;6.03;;;5.00;68.80;;;;;;2193606;57;20969;-80
2021/01/01 22:43:07;;;;;;;12.98;6.05;;;5.00;68.90;;;;;;2193450;56;21730;-82
2021/01/01 22:45:33;;;;;;;10.75;5.43;;;4.90;68.80;;;;;;2406829;57;21059;-82
2021/01/01 22:48:00;;;;;;;14.00;6.78;;;4.90;68.90;;;;;;2406817;57;20972;-81
2021/01/01 22:50:26;;;;;;;12.02;5.50;;;4.80;68.90;;;;;;2408254;55;21041;-81
2021/01/01 22:52:53;;;;;;;14.85;7.07;;;4.80;69.00;;;;;;2408465;56;21445;-83
2021/01/01 22:55:19;;;;;;;14.15;6.68;;;4.80;69.10;;;;;;2407315;56;20952;-84
2021/01/01 22:57:55;;;;;;;13.48;6.12;;;4.80;69.10;;;;;;2200868;56;21565;-82
2021/01/01 23:00:31;;;;;;;10.25;5.78;;;4.80;69.20;;;;;;2395892;56;21037;-83
2021/01/01 23:03:14;;;;;;;13.00;5.43;;;4.80;69.40;;;;;;2405719;56;20997;-84
2021/01/01 23:05:41;;;;;;;14.65;6.00;;;4.80;69.60;;;;;;2384127;57;21014;-81
2021/01/01 23:08:07;;;;;;;14.75;6.62;;;4.80;69.70;;;;;;2192917;56;21456;-82
2021/01/01 23:10:34;;;;;;;15.40;6.70;;;4.80;69.90;;;;;;2403098;56;21070;-84
2021/01/01 23:13:00;;;;;;;13.93;6.72;;;4.80;70.00;;;;;;2384578;56;21089;-83
2021/01/01 23:15:26;;;;;;;14.27;6.82;;;4.80;70.00;;;;;;2406306;57;20946;-83
2021/01/01 23:17:57;;;;;;;13.18;6.62;;;4.80;70.00;;;;;;2406427;57;20981;-83
2021/01/01 23:20:30;;;;;;;15.00;7.10;;;4.80;70.00;;;;;;2408445;56;20944;-81
2021/01/01 23:23:00;;;;;;;16.02;7.22;;;4.80;69.90;;;;;;2196486;56;20965;-83
2021/01/01 23:25:39;;;;;;;16.00;7.00;;;4.80;69.90;;;;;;2407357;57;21044;-83
2021/01/01 23:29:04;;;;;;;15.30;7.10;;;4.80;70.00;;;;;;2407486;56;21099;-83
2021/01/01 23:32:24;;;;;;;15.88;7.55;;;4.80;69.90;;;;;;2202304;56;21031;-81
2021/01/01 23:35:10;;;;;;;12.43;5.80;;;4.80;69.80;;;;;;2402286;56;21040;-82
2021/01/01 23:40:14;;;;;;;14.00;5.85;;;4.80;69.90;;;;;;2407556;56;21016;-81
2021/01/01 23:42:43;;;;;;;11.20;5.30;;;4.90;69.50;;;;;;2407303;57;21025;-81
2021/01/01 23:45:10;;;;;;;11.63;5.50;;;4.80;69.70;;;;;;2407750;56;20987;-82
2021/01/01 23:47:42;;;;;;;13.55;6.75;;;4.80;69.60;;;;;;2188675;56;22282;-83
2021/01/01 23:50:09;;;;;;;13.25;6.85;;;4.80;69.40;;;;;;2407142;56;21127;-81
2021/01/01 23:52:37;;;;;;;12.60;6.65;;;4.80;69.30;;;;;;2192869;56;21028;-82
2021/01/01 23:55:04;;;;;;;15.30;7.50;;;4.80;69.30;;;;;;2408360;57;20969;-82
2021/01/01 23:57:32;;;;;;;14.00;7.60;;;4.80;69.20;;;;;;2186394;56;20977;-82
2021/01/01 23:59:58;;;;;;;15.65;6.82;;;4.70;69.10;;;;;;2409282;56;21028;-82
